Ash Shuwayfat, Lebanon
Current Conditions -  °F | °C
As of 4:00 PM on Thursday 27 Nov 2014 (Local Time) from OLBA Reporting Station
Scattered Clouds Scattered Clouds  
Wind Chill: 63°   Ceiling: Unl
Heat Index: 63°   Visibility: 5mi
Dew Point: 52°   Wind: 5mph
Humidity: 68%   Direction: 190°S
Pressure: 30.03"   Gusts: NA
Location:  33.81°N, 35.52°E
Report Text: OLBA 271300Z 19004KT 160V220 8000 FEW026 SCT080 17/11 Q1017
Loading
Personal Weather Stations






























Interactive Weather Map New forecast layout! Learn more

10-Day Weather Forecast

Advertisements
Track Severe Weather on mobile